Flight Track Log - Related Links

Times and Time Zones

All times are in EDT time to prevent confusion due to time zone crossing. See the AAL1459 flight status page for this flight to view local times or setup timezone preferences in your user account.

Time Position Orientation Groundspeed Altitude Reporting Facility
EDT Latitude Longitude Course Direction KTS MPH feet Rate Location/Type
Fri 02:18:22 PM 42.3320 -71.0110 157° South 172 198 1,900  Level FlightAware ADS-B
Fri 02:18:32 PM 42.3250 -71.0030 140° Southeast 192 221 2,100 686 Climbing FlightAware ADS-B
Fri 02:18:57 PM 42.3130 -70.9780 123° Southeast 213 245 2,300 240 Climbing FlightAware ADS-B
Fri 02:19:22 PM 42.3010 -70.9540 124° Southeast 213 245 2,300 1,920 Level FlightAware ADS-B
Fri 02:19:47 PM 42.3170 -70.8960 70° East 300 345 3,900 3,164 Climbing FlightAware ADS-B
Fri 02:20:17 PM 42.3270 -70.8430 76° East 299 344 5,200 2,945 Climbing FlightAware ADS-B
Fri 02:20:42 PM 42.3370 -70.7850 77° East 317 365 6,600 2,850 Climbing FlightAware ADS-B
Fri 02:20:57 PM 42.3460 -70.7640 60° Northeast 330 380 7,100 2,200 Climbing FlightAware ADS-B
Fri 02:21:12 PM 42.3680 -70.7420 36° Northeast 330 380 7,700 2,600 Climbing FlightAware ADS-B
Fri 02:21:27 PM 42.3900 -70.7330 17° North 334 384 8,400 2,700 Climbing FlightAware ADS-B
Fri 02:21:52 PM 42.4280 -70.7200 14° North 331 381 9,500 2,618 Climbing FlightAware ADS-B
Fri 02:22:22 PM 42.4730 -70.7250 355° North 315 362 10,800 2,486 Climbing FlightAware ADS-B
Fri 02:23:02 PM 42.5250 -70.7630 332° Northwest 318 366 12,400 2,259 Climbing FlightAware ADS-B
Fri 02:23:47 PM 42.5680 -70.8340 309° West 328 377 14,000 1,482 Climbing FlightAware ADS-B
Fri 02:24:27 PM 42.6020 -70.9050 303° West 341 392 14,500 1,350 Climbing FlightAware ADS-B
Fri 02:25:07 PM 42.6350 -70.9750 303° West 351 404 15,800 2,047 Climbing FlightAware ADS-B
Fri 02:25:52 PM 42.6780 -71.0620 304° West 361 415 17,400 1,906 Climbing FlightAware ADS-B
Fri 02:26:32 PM 42.7150 -71.1390 303° West 369 425 18,500 1,129 Climbing FlightAware ADS-B
Fri 02:27:17 PM 42.7590 -71.2300 303° West 372 428 19,000 975 Climbing FlightAware ADS-B
Fri 02:27:52 PM 42.7820 -71.3020 294° West 360 414 19,800 1,800 Climbing FlightAware ADS-B
Fri 02:28:37 PM 42.7930 -71.4030 278° West 368 423 21,400 1,867 Climbing FlightAware ADS-B
Fri 02:29:22 PM 42.8040 -71.5090 278° West 374 430 22,600 1,694 Climbing FlightAware ADS-B
Fri 02:30:02 PM 42.8130 -71.6030 277° West 381 438 23,800 1,906 Climbing FlightAware ADS-B
Fri 02:30:47 PM 42.8230 -71.7100 277° West 386 444 25,300 1,482 Climbing FlightAware ADS-B
Fri 02:31:27 PM 42.8320 -71.8090 277° West 402 463 25,900 525 Climbing FlightAware ADS-B
Fri 02:32:07 PM 42.8470 -71.9080 282° West 409 471 26,000 71 Climbing FlightAware ADS-B
Fri 02:32:52 PM 42.8980 -72.0050 306° West 423 487 26,000  Level FlightAware ADS-B
Fri 02:33:32 PM 42.9490 -72.0850 311° West 416 479 26,000  Level FlightAware ADS-B
Fri 02:34:17 PM 43.0050 -72.1730 311° West 414 476 26,000  Level FlightAware ADS-B
Fri 02:34:57 PM 43.0380 -72.2510 300° West 395 455 26,000  Level FlightAware ADS-B
Fri 02:35:37 PM 43.0650 -72.3540 290° West 396 456 26,000  Level FlightAware ADS-B
Fri 02:36:17 PM 43.0920 -72.4570 290° West 396 456 26,000  Level FlightAware ADS-B
Fri 02:37:02 PM 43.1100 -72.5620 283° West 390 449 26,000  Level FlightAware ADS-B
Fri 02:37:52 PM 43.1130 -72.6790 272° West 389 448 26,000  Level FlightAware ADS-B
Fri 02:38:37 PM 43.1160 -72.7650 273° West 390 449 26,000  Level FlightAware ADS-B
Fri 02:39:12 PM 43.1180 -72.8490 272° West 392 451 26,000  Level FlightAware ADS-B
Fri 02:40:17 PM 43.1220 -73.0120 272° West 392 451 26,000  Level FlightAware ADS-B
Fri 02:41:02 PM 43.1250 -73.1280 272° West 391 450 26,000  Level FlightAware ADS-B
Fri 02:41:37 PM 43.1270 -73.2180 272° West 391 450 26,000  Level FlightAware ADS-B
Fri 02:42:22 PM 43.1310 -73.3360 273° West 387 445 26,000  Level FlightAware ADS-B
Fri 02:43:22 PM 43.1340 -73.4890 272° West 387 445 26,000  Level FlightAware ADS-B
Fri 02:44:02 PM 43.1350 -73.5810 271° West 387 445 26,000  Level FlightAware ADS-B
Fri 02:44:42 PM 43.1380 -73.6940 272° West 384 442 26,000  Level FlightAware ADS-B
Fri 02:45:27 PM 43.1400 -73.8050 271° West 383 441 26,000  Level FlightAware ADS-B
Fri 02:46:07 PM 43.1420 -73.9010 272° West 382 440 26,000  Level FlightAware ADS-B
Fri 02:46:47 PM 43.1440 -73.9980 272° West 379 436 26,000  Level FlightAware ADS-B
Fri 02:47:42 PM 43.1460 -74.1180 271° West 381 438 26,000  Level FlightAware ADS-B
Fri 02:48:27 PM 43.1470 -74.2300 271° West 381 438 26,000  Level FlightAware ADS-B
Fri 02:49:02 PM 43.1480 -74.3100 271° West 381 438 26,000  Level FlightAware ADS-B
Fri 02:49:52 PM 43.1500 -74.4130 272° West 381 438 26,000  Level FlightAware ADS-B
Fri 02:50:32 PM 43.1510 -74.4950 271° West 381 438 26,000  Level FlightAware ADS-B
Fri 02:51:12 PM 43.1520 -74.5770 271° West 381 438 26,000  Level FlightAware ADS-B
Fri 02:51:52 PM 43.1530 -74.6590 271° West 381 438 26,000  Level FlightAware ADS-B
Fri 02:55:12 PM 43.1580 -75.2090 271° West 388 447 26,000  Level FlightAware ADS-B
Fri 02:55:57 PM 43.1590 -75.3230 271° West 391 450 26,000  Level FlightAware ADS-B
Fri 02:56:37 PM 43.1590 -75.4240 270° West 389 448 26,000  Level FlightAware ADS-B
Fri 02:57:17 PM 43.1600 -75.5200 271° West 386 444 26,000  Level FlightAware ADS-B
Fri 02:57:57 PM 43.1600 -75.6140 270° West 387 445 26,000  Level FlightAware ADS-B
Fri 02:58:42 PM 43.1600 -75.7170 270° West 386 444 26,000  Level FlightAware ADS-B
Fri 02:59:22 PM 43.1610 -75.8220 271° West 384 442 26,000  Level FlightAware ADS-B
Fri 03:00:07 PM 43.1610 -75.9350 270° West 382 440 26,000  Level FlightAware ADS-B
Fri 03:01:02 PM 43.1610 -76.0660 270° West 381 438 26,000  Level FlightAware ADS-B
Fri 03:01:37 PM 43.1610 -76.1510 270° West 381 438 26,000  Level FlightAware ADS-B
Fri 03:02:37 PM 43.1600 -76.2960 270° West 382 440 26,000  Level FlightAware ADS-B
Fri 03:03:17 PM 43.1610 -76.3920 271° West 381 438 26,000  Level FlightAware ADS-B
Fri 03:04:07 PM 43.1610 -76.4890 270° West 378 435 26,000  Level FlightAware ADS-B
Fri 03:04:42 PM 43.1600 -76.5940 269° West 377 434 26,000  Level FlightAware ADS-B
Fri 03:05:32 PM 43.1600 -76.7140 270° West 378 435 26,000  Level FlightAware ADS-B
Fri 03:06:12 PM 43.1590 -76.8050 269° West 379 436 26,000  Level FlightAware ADS-B
Fri 03:06:57 PM 43.1590 -76.9150 270° West 378 435 26,000  Level FlightAware ADS-B
Fri 03:07:37 PM 43.1580 -77.0130 269° West 381 438 26,000  Level FlightAware ADS-B
Fri 03:08:17 PM 43.1580 -77.1100 270° West 382 440 26,000  Level FlightAware ADS-B
Fri 03:09:02 PM 43.1570 -77.2190 269° West 383 441 26,000  Level FlightAware ADS-B
Fri 03:09:42 PM 43.1560 -77.3150 269° West 382 440 26,000  Level FlightAware ADS-B
Fri 03:10:27 PM 43.1550 -77.4220 269° West 381 438 26,000  Level FlightAware ADS-B
Fri 03:11:07 PM 43.1540 -77.5210 269° West 381 438 26,000  Level FlightAware ADS-B
Fri 03:11:47 PM 43.1530 -77.6170 269° West 382 440 26,000  Level FlightAware ADS-B
Fri 03:12:32 PM 43.1520 -77.7260 269° West 383 441 26,000  Level FlightAware ADS-B
Fri 03:13:12 PM 43.1500 -77.8210 268° West 383 441 26,000  Level FlightAware ADS-B
Fri 03:13:57 PM 43.1490 -77.9300 269° West 383 441 26,000  Level FlightAware ADS-B
Fri 03:14:37 PM 43.1470 -78.0260 268° West 376 433 26,000  Level FlightAware ADS-B
Fri 03:15:17 PM 43.1460 -78.1220 269° West 375 432 26,000  Level FlightAware ADS-B
Fri 03:16:02 PM 43.1440 -78.2280 269° West 373 429 26,000  Level FlightAware ADS-B
Fri 03:16:42 PM 43.1430 -78.3210 269° West 367 422 26,000  Level FlightAware ADS-B
Fri 03:17:22 PM 43.1410 -78.4140 268° West 361 415 26,000  Level FlightAware ADS-B
Fri 03:18:07 PM 43.1380 -78.5120 268° West 342 394 26,000  Level FlightAware ADS-B
Fri 03:18:47 PM 43.1360 -78.5950 268° West 342 394 26,000  Level FlightAware ADS-B
Fri 03:19:32 PM 43.1330 -78.6930 268° West 341 392 26,000  Level FlightAware ADS-B
Fri 03:20:12 PM 43.1310 -78.7820 268° West 340 391 26,000  Level FlightAware ADS-B
Fri 03:20:57 PM 43.1280 -78.8780 268° West 339 390 26,000  Level FlightAware ADS-B
Fri 03:21:37 PM 43.1250 -78.9600 267° West 334 384 26,000  Level FlightAware ADS-B
Fri 03:22:17 PM 43.1230 -79.0430 268° West 329 379 26,000  Level FlightAware ADS-B
Fri 03:22:57 PM 43.1200 -79.1290 267° West 329 379 26,000  Level FlightAware ADS-B
Fri 03:23:42 PM 43.1170 -79.2230 268° West 328 377 26,000  Level FlightAware ADS-B
Fri 03:24:22 PM 43.1140 -79.3040 267° West 327 376 26,000  Level FlightAware ADS-B
Fri 03:25:07 PM 43.1110 -79.3930 267° West 327 376 26,000  Level FlightAware ADS-B
Fri 03:25:47 PM 43.1080 -79.4800 267° West 326 375 26,000  Level FlightAware ADS-B
Fri 03:26:32 PM 43.1050 -79.5720 267° West 325 374 26,000  Level FlightAware ADS-B
Fri 03:27:12 PM 43.1020 -79.6550 267° West 324 373 26,000  Level FlightAware ADS-B
Fri 03:27:57 PM 43.0990 -79.7460 267° West 323 372 26,000  Level FlightAware ADS-B
Fri 03:28:37 PM 43.0960 -79.8270 267° West 322 371 26,000  Level FlightAware ADS-B
Fri 03:29:17 PM 43.0930 -79.9060 267° West 326 375 26,000  Level FlightAware ADS-B
Fri 03:30:02 PM 43.0890 -80.0030 267° West 330 380 26,000  Level FlightAware ADS-B
Fri 03:30:42 PM 43.0860 -80.0850 267° West 331 381 26,000  Level FlightAware ADS-B
Fri 03:31:22 PM 43.0820 -80.1700 266° West 333 383 26,000  Level FlightAware ADS-B
Fri 03:32:07 PM 43.0780 -80.2640 267° West 334 384 26,000  Level FlightAware ADS-B
Fri 03:32:47 PM 43.0750 -80.3490 267° West 334 384 26,000  Level FlightAware ADS-B
Fri 03:33:32 PM 43.0710 -80.4430 267° West 335 386 26,000  Level FlightAware ADS-B
Fri 03:34:12 PM 43.0670 -80.5280 266° West 334 384 26,000  Level FlightAware ADS-B
Fri 03:34:52 PM 43.0630 -80.6130 266° West 331 381 26,000  Level FlightAware ADS-B
Fri 03:35:32 PM 43.0600 -80.6950 267° West 328 377 26,000  Level FlightAware ADS-B
Fri 03:36:17 PM 43.0550 -80.7870 266° West 326 375 26,000  Level FlightAware ADS-B
Fri 03:37:02 PM 43.0510 -80.8790 267° West 327 376 26,000  Level FlightAware ADS-B
Fri 03:37:42 PM 43.0470 -80.9620 266° West 327 376 26,000  Level FlightAware ADS-B
Fri 03:38:22 PM 43.0430 -81.0440 266° West 327 376 26,000  Level FlightAware ADS-B
Fri 03:39:07 PM 43.0390 -81.1380 267° West 325 374 26,000  Level FlightAware ADS-B
Fri 03:39:47 PM 43.0370 -81.2180 268° West 329 379 26,000  Level FlightAware ADS-B
Fri 03:40:32 PM 43.0350 -81.3140 268° West 326 375 26,000  Level FlightAware ADS-B
Fri 03:41:12 PM 43.0340 -81.3910 269° West 328 377 26,000  Level FlightAware ADS-B
Fri 03:41:52 PM 43.0320 -81.4710 268° West 330 380 26,000  Level FlightAware ADS-B
Fri 03:42:32 PM 43.0310 -81.5540 269° West 330 380 26,000  Level FlightAware ADS-B
Fri 03:43:22 PM 43.0290 -81.6460 268° West 331 381 26,000  Level FlightAware ADS-B
Fri 03:44:02 PM 43.0270 -81.7390 268° West 329 379 26,000  Level FlightAware ADS-B
Fri 03:44:32 PM 43.0260 -81.7990 269° West 328 377 26,000  Level FlightAware ADS-B
Fri 03:45:42 PM 43.0230 -81.9320 268° West 324 373 26,000  Level FlightAware ADS-B
Fri 03:46:17 PM 43.0210 -82.0160 268° West 326 375 26,000  Level FlightAware ADS-B
Fri 03:47:12 PM 43.0180 -82.1280 268° West 324 373 26,000  Level FlightAware ADS-B
Fri 03:48:12 PM 43.0150 -82.2490 268° West 323 372 26,000  Level FlightAware ADS-B
Fri 03:48:42 PM 43.0140 -82.3120 269° West 322 371 26,000  Level FlightAware ADS-B
Fri 03:49:27 PM 43.0120 -82.3970 268° West 319 367 26,000  Level FlightAware ADS-B
Fri 03:50:17 PM 43.0090 -82.4970 268° West 309 356 26,000  Level FlightAware ADS-B
Fri 03:51:02 PM 43.0060 -82.5870 267° West 309 356 26,000  Level FlightAware ADS-B
Fri 03:51:37 PM 43.0040 -82.6540 268° West 307 353 26,000  Level FlightAware ADS-B
Fri 03:52:27 PM 43.0010 -82.7470 268° West 308 354 26,000  Level FlightAware ADS-B
Fri 03:53:02 PM 42.9990 -82.8170 268° West 318 366 26,000  Level FlightAware ADS-B
Fri 03:53:47 PM 42.9960 -82.9120 268° West 326 375 26,000  Level FlightAware ADS-B
Fri 03:54:32 PM 42.9930 -83.0000 267° West 335 386 26,000  Level FlightAware ADS-B
Fri 03:55:12 PM 42.9900 -83.0980 268° West 347 399 26,000  Level FlightAware ADS-B
Fri 03:55:57 PM 42.9870 -83.1880 267° West 350 403 26,000  Level FlightAware ADS-B
Fri 03:56:32 PM 42.9840 -83.2650 267° West 350 403 26,000  Level FlightAware ADS-B
Fri 03:57:12 PM 42.9810 -83.3560 267° West 355 409 26,000  Level FlightAware ADS-B
Fri 03:58:02 PM 42.9770 -83.4700 267° West 360 414 26,000  Level FlightAware ADS-B
Fri 03:58:42 PM 42.9740 -83.5480 267° West 361 415 26,000  Level FlightAware ADS-B
Fri 03:59:27 PM 42.9690 -83.6810 267° West 361 415 26,000  Level FlightAware ADS-B
Fri 04:00:07 PM 42.9650 -83.7690 266° West 353 406 26,000  Level FlightAware ADS-B
Fri 04:00:52 PM 42.9550 -83.8670 262° West 353 406 26,000  Level FlightAware ADS-B
Fri 04:01:32 PM 42.9470 -83.9530 263° West 354 407 26,000  Level FlightAware ADS-B
Fri 04:02:12 PM 42.9380 -84.0460 263° West 355 409 26,000  Level FlightAware ADS-B
Fri 04:02:57 PM 42.9290 -84.1400 263° West 366 421 26,000  Level FlightAware ADS-B
Fri 04:03:37 PM 42.9190 -84.2420 262° West 370 426 26,000  Level FlightAware ADS-B
Fri 04:04:22 PM 42.9090 -84.3440 262° West 373 429 26,000  Level FlightAware ADS-B
Fri 04:05:02 PM 42.8990 -84.4350 261° West 375 432 26,000  Level FlightAware ADS-B
Fri 04:05:47 PM 42.8880 -84.5410 262° West 378 435 26,000  Level FlightAware ADS-B
Fri 04:06:27 PM 42.8780 -84.6370 262° West 380 437 26,000  Level FlightAware ADS-B
Fri 04:07:07 PM 42.8690 -84.7310 263° West 384 442 26,000  Level FlightAware ADS-B
Fri 04:07:52 PM 42.8570 -84.8420 262° West 388 447 26,000  Level FlightAware ADS-B
Fri 04:08:32 PM 42.8470 -84.9390 262° West 392 451 26,000  Level FlightAware ADS-B
Fri 04:09:17 PM 42.8350 -85.0510 262° West 395 455 26,000  Level FlightAware ADS-B
Fri 04:09:57 PM 42.8250 -85.1480 262° West 397 457 26,000  Level FlightAware ADS-B
Fri 04:10:37 PM 42.8150 -85.2430 262° West 398 458 26,000  Level FlightAware ADS-B
Fri 04:11:22 PM 42.8020 -85.3550 261° West 399 459 26,000  Level FlightAware ADS-B
Fri 04:12:02 PM 42.7910 -85.4580 262° West 400 460 26,000  Level FlightAware ADS-B
Fri 04:12:47 PM 42.7740 -85.5690 258° West 398 458 26,000  Level FlightAware ADS-B
Fri 04:13:27 PM 42.7570 -85.6620 256° West 398 458 26,000 -300 Level FlightAware ADS-B
Fri 04:14:07 PM 42.7390 -85.7640 257° West 398 458 25,600 -776 Descending FlightAware ADS-B
Fri 04:14:52 PM 42.7200 -85.8690 256° West 393 452 24,900 -988 Descending FlightAware ADS-B
Fri 04:15:32 PM 42.7030 -85.9640 256° West 389 448 24,200 -1,050 Descending FlightAware ADS-B
Fri 04:16:12 PM 42.6850 -86.0580 255° West 384 442 23,500 -1,553 Descending FlightAware ADS-B
Fri 04:16:57 PM 42.6660 -86.1600 256° West 368 423 22,000 -2,188 Descending FlightAware ADS-B
Fri 04:17:37 PM 42.6510 -86.2460 257° West 356 410 20,400 -2,047 Descending FlightAware ADS-B
Fri 04:18:22 PM 42.6320 -86.3460 256° West 352 405 19,100 -1,624 Descending FlightAware ADS-B
Fri 04:19:02 PM 42.6160 -86.4310 256° West 352 405 18,100 -1,425 Descending FlightAware ADS-B
Fri 04:19:42 PM 42.6000 -86.5150 256° West 343 395 17,200 -1,271 Descending FlightAware ADS-B
Fri 04:20:27 PM 42.5840 -86.6020 256° West 334 384 16,300 -1,341 Descending FlightAware ADS-B
Fri 04:21:07 PM 42.5670 -86.6900 255° West 326 375 15,300 -1,412 Descending FlightAware ADS-B
Fri 04:21:52 PM 42.5480 -86.7720 253° West 304 350 14,300 -1,271 Descending FlightAware ADS-B
Fri 04:22:32 PM 42.5290 -86.8420 250° West 300 345 13,500 -1,271 Descending FlightAware ADS-B
Fri 04:23:17 PM 42.5070 -86.9220 250° West 296 341 12,500 -1,271 Descending FlightAware ADS-B
Fri 04:23:57 PM 42.4880 -86.9910 250° West 289 333 11,700 -1,200 Descending FlightAware ADS-B
Fri 04:24:37 PM 42.4700 -87.0570 250° West 281 323 10,900 -988 Descending FlightAware ADS-B
Fri 04:25:22 PM 42.4510 -87.1260 250° West 255 293 10,300 -706 Descending FlightAware ADS-B
Fri 04:26:02 PM 42.4350 -87.1850 250° West 245 282 9,900 -600 Descending FlightAware ADS-B
Fri 04:26:32 PM 42.4240 -87.2270 250° West 245 282 9,600 -1,091 Descending FlightAware ADS-B
Fri 04:26:57 PM 42.4130 -87.2650 249° West 243 280 8,900 -1,636 Descending FlightAware ADS-B
Fri 04:27:27 PM 42.4010 -87.3090 250° West 245 282 8,100 -1,600 Descending FlightAware ADS-B
Fri 04:27:42 PM 42.3960 -87.3290 251° West 245 282 7,700 -1,200 Descending FlightAware ADS-B
Fri 04:28:07 PM 42.3850 -87.3640 247° West 238 274 7,300 -1,050 Descending FlightAware ADS-B
Fri 04:28:22 PM 42.3730 -87.3790 223° Southwest 250 288 7,000 -1,000 Descending FlightAware ADS-B
Fri 04:28:37 PM 42.3540 -87.3850 193° South 270 311 6,800 -933 Descending FlightAware ADS-B
Fri 04:29:07 PM 42.3160 -87.3760 170° South 275 316 6,300 -545 Descending FlightAware ADS-B
Fri 04:29:32 PM 42.2860 -87.3690 170° South 271 312 6,300  Level FlightAware ADS-B
Fri 04:30:02 PM 42.2510 -87.3590 168° South 270 311 6,300  Level FlightAware ADS-B
Fri 04:30:27 PM 42.2200 -87.3510 169° South 249 287 6,300 -109 Level FlightAware ADS-B
Fri 04:30:57 PM 42.1890 -87.3410 167° South 219 252 6,200 -545 Descending FlightAware ADS-B
Fri 04:31:22 PM 42.1650 -87.3330 166° South 206 237 5,800 -800 Descending FlightAware ADS-B
Fri 04:31:42 PM 42.1480 -87.3270 165° South 199 229 5,600 -533 Descending FlightAware ADS-B
Fri 04:32:07 PM 42.1250 -87.3190 166° South 193 222 5,400 -655 Descending FlightAware ADS-B
Fri 04:32:37 PM 42.1000 -87.3090 163° South 188 216 5,000 -764 Descending FlightAware ADS-B
Fri 04:33:02 PM 42.0790 -87.3020 166° South 185 213 4,700 -764 Descending FlightAware ADS-B
Fri 04:33:32 PM 42.0540 -87.2930 165° South 182 209 4,300 -667 Descending FlightAware ADS-B
Fri 04:33:47 PM 42.0430 -87.2900 169° South 168 193 4,200  Descending FlightAware ADS-B
Fri 04:34:07 PM 42.0310 -87.2980 206° Southwest 147 169 4,300 150 Climbing FlightAware ADS-B
Fri 04:34:27 PM 42.0230 -87.3120 232° Southwest 146 168 4,300  Level FlightAware ADS-B
Fri 04:34:57 PM 42.0120 -87.3330 235° Southwest 143 165 4,300  Level FlightAware ADS-B
Fri 04:35:22 PM 42.0080 -87.3550 256° West 140 161 4,300  Level FlightAware ADS-B
Fri 04:35:52 PM 42.0020 -87.3820 253° West 139 160 4,300  Level FlightAware ADS-B
Fri 04:36:07 PM 42.0010 -87.3950 264° West 140 161 4,300  Level FlightAware ADS-B
Fri 04:36:22 PM 42.0000 -87.4060 263° West 145 167 4,300  Level FlightAware ADS-B
Fri 04:37:02 PM 42.0020 -87.4460 274° West 152 175 4,300  Level FlightAware ADS-B
Fri 04:37:27 PM 42.0030 -87.4700 273° West 148 170 4,300  Level FlightAware ADS-B
Fri 04:37:42 PM 42.0030 -87.4830 270° West 149 171 4,300  Level FlightAware ADS-B
Fri 04:38:12 PM 42.0020 -87.5110 267° West 150 173 4,300  Level FlightAware ADS-B
Fri 04:38:37 PM 42.0020 -87.5340 270° West 145 167 4,300  Level FlightAware ADS-B
Fri 04:39:07 PM 42.0030 -87.5610 273° West 146 168 4,300  Level FlightAware ADS-B
Fri 04:39:52 PM 42.0030 -87.6010 270° West 144 166 4,300  Level FlightAware ADS-B
Fri 04:40:32 PM 42.0030 -87.6370 270° West 143 165 4,300  Level FlightAware ADS-B
Fri 04:40:57 PM 42.0030 -87.6590 270° West 150 173 4,300 -120 Level FlightAware ADS-B
Fri 04:41:22 PM 42.0030 -87.6840 270° West 155 178 4,200 -533 Descending FlightAware ADS-B
Fri 04:41:42 PM 42.0030 -87.7040 270° West 152 175 3,900 -800 Descending FlightAware ADS-B
Fri 04:42:07 PM 42.0030 -87.7280 270° West 154 177 3,600 -764 Descending FlightAware ADS-B
Fri 04:42:37 PM 42.0030 -87.7560 270° West 150 173 3,200 -840 Descending FlightAware ADS-B
Fri 04:42:57 PM 42.0030 -87.7730 270° West 134 154 2,900 -900 Descending FlightAware ADS-B
Fri 04:43:17 PM 42.0030 -87.7900 270° West 122 140 2,600 -738 Descending FlightAware ADS-B
Fri 04:44:02 PM 42.0030 -87.8240 270° West 119 137 2,100 -600 Descending FlightAware ADS-B
Fri 04:44:27 PM 42.0030 -87.8400 270° West 115 132 1,900 -655 Descending FlightAware ADS-B
Fri 04:44:57 PM 42.0030 -87.8600 270° West 117 135 1,500 -700 Descending FlightAware ADS-B
Fri 04:45:27 PM 42.0030 -87.8860 270° West 122 140 1,200 -720 Descending FlightAware ADS-B
Fri 04:45:47 PM 42.0030 -87.8990 270° West 126 145 900 -900 Descending FlightAware ADS-B

Login

Don't have an account? Register now (free) for customized features, flight alerts, and more!